Crimora, Virginia
Current Conditions -  °F | °C
As of 9:55 AM on Thursday 23 Oct 2014 (Local Time) from KW13 Reporting Station
Clear Clear  
Wind Chill: 53°   Ceiling: Unl
Heat Index: 53°   Visibility: 10mi
Dew Point: 41°   Wind: 9mph
Humidity: 64%   Direction: 320°NW
Pressure: 30.01"   Gusts: NA
Location:  38.15°N, 78.85°W
Report Text: KW13 231355Z AUTO 32008KT 10SM CLR 11/05 A3001 RMK AO1 T01140049
Loading
Personal Weather Stations






























Interactive Weather Map
Tropical Storm Tracking
New forecast layout! Learn more

10-Day Weather Forecast

Advertisements
Track Severe Weather on mobile